createdAt,value
2022-10-04T00:02:27.656Z,7.90
2022-10-04T00:05:03.087Z,7.90
2022-10-04T00:07:34.280Z,7.90
2022-10-04T00:10:08.139Z,7.80
2022-10-04T00:12:42.201Z,7.80
2022-10-04T00:15:21.465Z,7.80
2022-10-04T00:18:06.738Z,7.80
2022-10-04T00:21:04.022Z,7.80
2022-10-04T00:23:44.672Z,7.80
2022-10-04T00:26:42.598Z,7.80
2022-10-04T00:29:32.676Z,7.80
2022-10-04T00:32:47.616Z,7.80
2022-10-04T00:35:47.330Z,7.80
2022-10-04T00:38:16.698Z,7.70
2022-10-04T00:40:51.015Z,7.70
2022-10-04T00:43:23.848Z,7.70
2022-10-04T00:45:55.877Z,7.60
2022-10-04T00:48:34.625Z,7.60
2022-10-04T00:51:18.100Z,7.60
2022-10-04T00:53:59.080Z,7.60
2022-10-04T00:56:33.742Z,7.60
2022-10-04T00:59:17.209Z,7.70
2022-10-04T01:01:50.450Z,7.70
2022-10-04T01:04:28.751Z,7.70
2022-10-04T01:06:59.993Z,7.70
2022-10-04T01:09:29.003Z,7.70
2022-10-04T01:12:03.168Z,7.70
2022-10-04T01:14:40.771Z,7.70
2022-10-04T01:17:10.901Z,7.70
2022-10-04T01:19:49.968Z,7.70
2022-10-04T01:22:37.296Z,7.70
2022-10-04T01:25:05.864Z,7.70
2022-10-04T01:27:37.530Z,7.70
2022-10-04T01:30:09.379Z,7.70
2022-10-04T01:32:39.036Z,7.70
2022-10-04T01:35:09.290Z,7.70
2022-10-04T01:37:39.326Z,7.70
2022-10-04T01:40:09.529Z,7.70
2022-10-04T01:42:43.077Z,7.60
2022-10-04T01:45:17.912Z,7.60
2022-10-04T01:47:51.436Z,7.60
2022-10-04T01:50:25.063Z,7.60
2022-10-04T01:53:01.212Z,7.60
2022-10-04T01:55:31.565Z,7.60
2022-10-04T01:58:04.049Z,7.50
2022-10-04T02:00:32.838Z,7.50
2022-10-04T02:03:04.708Z,7.40
2022-10-04T02:05:36.717Z,7.40
2022-10-04T02:08:09.805Z,7.40
2022-10-04T02:10:43.616Z,7.40
2022-10-04T02:13:14.531Z,7.40
2022-10-04T02:15:43.100Z,7.30
2022-10-04T02:18:14.179Z,7.30
2022-10-04T02:20:43.553Z,7.30
2022-10-04T02:23:13.990Z,7.30
2022-10-04T02:25:41.704Z,7.30
2022-10-04T02:28:13.123Z,7.30
2022-10-04T02:30:44.548Z,7.30
2022-10-04T02:33:11.828Z,7.30
2022-10-04T02:35:47.327Z,7.30
2022-10-04T02:38:22.202Z,7.30
2022-10-04T02:40:57.087Z,7.30
2022-10-04T02:43:28.704Z,7.30
2022-10-04T02:46:02.510Z,7.30
2022-10-04T02:48:37.576Z,7.30
2022-10-04T02:51:18.937Z,7.20
2022-10-04T02:54:00.976Z,7.30
2022-10-04T02:56:31.971Z,7.20
2022-10-04T02:59:03.140Z,7.20
2022-10-04T03:01:43.655Z,7.20
2022-10-04T03:04:15.005Z,7.10
2022-10-04T03:06:44.936Z,7.10
2022-10-04T03:09:16.076Z,7.10
2022-10-04T03:11:44.750Z,7.10
2022-10-04T03:14:17.836Z,7.10
2022-10-04T03:16:48.641Z,7.10
2022-10-04T03:19:18.619Z,7.10
2022-10-04T03:21:50.102Z,7.10
2022-10-04T03:24:21.557Z,7.10
2022-10-04T03:26:52.939Z,7.10
2022-10-04T03:29:23.929Z,7.10
2022-10-04T03:31:54.121Z,7.10
2022-10-04T03:34:24.507Z,7.20
2022-10-04T03:36:56.137Z,7.20
2022-10-04T03:39:30.046Z,7.20
2022-10-04T03:41:58.849Z,7.30
2022-10-04T03:44:26.815Z,7.30
2022-10-04T03:46:54.854Z,7.30
2022-10-04T03:49:32.401Z,7.30
2022-10-04T03:52:02.026Z,7.30
2022-10-04T03:54:33.143Z,7.30
2022-10-04T03:57:02.472Z,7.30
2022-10-04T03:59:30.741Z,7.30
2022-10-04T04:02:07.409Z,7.30
2022-10-04T04:04:43.476Z,7.40
2022-10-04T04:07:16.100Z,7.40
2022-10-04T04:09:50.805Z,7.40
2022-10-04T04:12:21.689Z,7.40
2022-10-04T04:14:51.892Z,7.40
2022-10-04T04:17:38.964Z,7.40
2022-10-04T04:20:16.478Z,7.30
2022-10-04T04:22:48.807Z,7.30
2022-10-04T04:25:18.504Z,7.30
2022-10-04T04:27:49.272Z,7.30
2022-10-04T04:30:19.032Z,7.30
2022-10-04T04:32:50.959Z,7.30
2022-10-04T04:35:23.955Z,7.30
2022-10-04T04:38:07.081Z,7.30
2022-10-04T04:40:37.697Z,7.30
2022-10-04T04:43:05.605Z,7.30
2022-10-04T04:45:35.703Z,7.30
2022-10-04T04:48:04.672Z,7.30
2022-10-04T04:50:35.595Z,7.30
2022-10-04T04:53:07.825Z,7.30
2022-10-04T04:56:02.275Z,7.30
2022-10-04T04:58:33.091Z,7.30
2022-10-04T05:01:03.353Z,7.30
2022-10-04T05:03:33.072Z,7.30
2022-10-04T05:06:02.855Z,7.30
2022-10-04T05:08:33.365Z,7.30
2022-10-04T05:11:07.880Z,7.30
2022-10-04T05:13:41.679Z,7.30
2022-10-04T05:16:14.008Z,7.30
2022-10-04T05:18:41.973Z,7.30
2022-10-04T05:21:15.452Z,7.20
2022-10-04T05:23:43.660Z,7.20
2022-10-04T05:26:14.641Z,7.20
2022-10-04T05:28:42.886Z,7.20
2022-10-04T05:31:28.304Z,7.30
2022-10-04T05:33:58.917Z,7.20
2022-10-04T05:37:06.906Z,7.20
2022-10-04T05:39:41.568Z,7.20
2022-10-04T05:42:21.055Z,7.30
2022-10-04T05:44:52.941Z,7.20
2022-10-04T05:47:23.870Z,7.20
2022-10-04T05:49:55.415Z,7.20
2022-10-04T05:52:30.266Z,7.20
2022-10-04T05:55:22.046Z,7.10
2022-10-04T05:58:22.628Z,7.10
2022-10-04T06:01:10.368Z,7.10
2022-10-04T06:04:08.167Z,7.10
2022-10-04T06:06:40.429Z,7.10
2022-10-04T06:09:15.106Z,7.00
2022-10-04T06:11:52.379Z,7.00
2022-10-04T06:14:46.086Z,7.00
2022-10-04T06:17:31.258Z,7.00
2022-10-04T06:20:31.167Z,7.00
2022-10-04T06:23:01.725Z,7.00
2022-10-04T06:25:32.641Z,7.00
2022-10-04T06:28:14.483Z,7.10
2022-10-04T06:31:21.360Z,7.10
2022-10-04T06:34:18.963Z,7.10
2022-10-04T06:37:05.549Z,7.10
2022-10-04T06:39:57.233Z,7.10
2022-10-04T06:42:48.642Z,7.10
2022-10-04T06:45:44.390Z,7.20
2022-10-04T06:48:42.072Z,7.20
2022-10-04T06:51:17.258Z,7.30
2022-10-04T06:53:55.538Z,7.40
2022-10-04T06:56:45.690Z,7.40
2022-10-04T06:59:27.693Z,7.50
2022-10-04T07:01:59.289Z,7.50
2022-10-04T07:05:03.147Z,7.50
2022-10-04T07:07:36.212Z,7.60
2022-10-04T07:10:19.112Z,7.60
2022-10-04T07:12:54.709Z,7.70
2022-10-04T07:15:27.298Z,7.80
2022-10-04T07:17:58.506Z,7.80
2022-10-04T07:20:32.165Z,7.90
2022-10-04T07:23:03.881Z,7.90
2022-10-04T07:25:37.355Z,8.00
2022-10-04T07:28:31.262Z,8.10
2022-10-04T07:31:03.518Z,8.10
2022-10-04T07:33:34.828Z,8.20
2022-10-04T07:36:09.688Z,8.30
2022-10-04T07:38:45.341Z,8.40
2022-10-04T07:41:21.364Z,8.40
2022-10-04T07:43:54.347Z,8.50
2022-10-04T07:46:29.398Z,8.60
2022-10-04T07:48:58.072Z,8.60
2022-10-04T07:51:37.410Z,8.70
2022-10-04T07:54:13.749Z,8.80
2022-10-04T07:56:48.227Z,8.90
2022-10-04T07:59:32.865Z,8.90
2022-10-04T08:02:12.913Z,9.00
2022-10-04T08:04:51.364Z,9.10
2022-10-04T08:07:26.349Z,9.20
2022-10-04T08:10:03.917Z,9.30
2022-10-04T08:12:46.028Z,9.40
2022-10-04T08:15:35.681Z,9.50
2022-10-04T08:18:22.138Z,9.60
2022-10-04T08:20:55.948Z,9.60
2022-10-04T08:23:59.629Z,9.70
2022-10-04T08:26:42.046Z,9.70
2022-10-04T08:29:45.014Z,9.80
2022-10-04T08:32:47.449Z,9.90
2022-10-04T08:35:38.255Z,10.00
2022-10-04T08:38:45.183Z,10.10
2022-10-04T08:41:53.970Z,10.30
2022-10-04T08:44:58.308Z,10.40
2022-10-04T08:48:18.154Z,10.40
2022-10-04T08:51:07.081Z,10.50
2022-10-04T08:54:08.462Z,10.50
2022-10-04T08:57:11.192Z,10.60
2022-10-04T09:00:13.565Z,10.60
2022-10-04T09:03:26.448Z,10.70
2022-10-04T09:05:58.877Z,10.70
2022-10-04T09:08:56.408Z,10.80
2022-10-04T09:11:52.024Z,10.80
2022-10-04T09:14:46.237Z,10.90
2022-10-04T09:17:22.728Z,11.00
2022-10-04T09:20:09.264Z,11.10
2022-10-04T09:22:48.748Z,11.20
2022-10-04T09:25:56.343Z,11.30
2022-10-04T09:29:04.558Z,11.40
2022-10-04T09:31:53.339Z,11.50
2022-10-04T09:34:49.712Z,11.60
2022-10-04T09:37:37.785Z,11.80
2022-10-04T09:41:01.960Z,11.90
2022-10-04T09:43:48.490Z,12.00
2022-10-04T09:46:46.038Z,12.10
2022-10-04T09:49:30.484Z,12.10
2022-10-04T09:52:16.551Z,12.10
2022-10-04T09:55:07.866Z,12.20
2022-10-04T09:57:51.010Z,12.20
2022-10-04T10:00:25.755Z,12.40
2022-10-04T10:03:27.772Z,12.60
2022-10-04T10:06:34.844Z,12.70
2022-10-04T10:09:15.901Z,12.80
2022-10-04T10:12:10.285Z,12.70
2022-10-04T10:15:14.037Z,12.80
2022-10-04T10:17:49.772Z,12.70
2022-10-04T10:20:50.770Z,12.70
2022-10-04T10:23:33.037Z,12.70
2022-10-04T10:26:24.874Z,12.80
2022-10-04T10:29:32.910Z,12.80
2022-10-04T10:32:26.394Z,12.90
2022-10-04T10:35:34.982Z,13.00
2022-10-04T10:38:32.064Z,13.20
2022-10-04T10:41:18.642Z,13.30
2022-10-04T10:44:08.249Z,13.40
2022-10-04T10:46:59.584Z,13.50
2022-10-04T10:49:44.523Z,13.70
2022-10-04T10:52:37.946Z,13.80
2022-10-04T10:55:48.159Z,13.80
2022-10-04T10:58:41.260Z,13.80
2022-10-04T11:01:32.842Z,13.80
2022-10-04T11:04:27.643Z,13.90
2022-10-04T11:07:16.255Z,14.00
2022-10-04T11:10:26.581Z,14.10
2022-10-04T11:13:21.244Z,14.20
2022-10-04T11:16:21.840Z,14.30
2022-10-04T11:19:23.413Z,14.40
2022-10-04T11:22:20.039Z,14.50
2022-10-04T11:25:29.661Z,14.60
2022-10-04T11:28:06.017Z,14.70
2022-10-04T11:31:02.250Z,14.70
2022-10-04T11:34:00.309Z,14.80
2022-10-04T11:36:43.429Z,14.90
2022-10-04T11:39:35.279Z,14.90
2022-10-04T11:42:15.058Z,15.00
2022-10-04T11:45:19.310Z,15.10
2022-10-04T11:48:02.301Z,15.20
2022-10-04T11:50:39.797Z,15.20
2022-10-04T11:53:32.174Z,15.30
2022-10-04T11:56:34.008Z,15.40
2022-10-04T11:59:22.806Z,15.40
2022-10-04T12:02:32.096Z,15.50
2022-10-04T12:05:26.811Z,15.60
2022-10-04T12:08:05.484Z,15.70
2022-10-04T12:10:37.674Z,15.70
2022-10-04T12:13:30.239Z,15.80
2022-10-04T12:16:24.041Z,15.80
2022-10-04T12:19:22.921Z,15.90
2022-10-04T12:22:13.654Z,16.00
2022-10-04T12:25:00.152Z,16.00
2022-10-04T12:28:11.495Z,16.10
2022-10-04T12:31:02.769Z,16.10
2022-10-04T12:33:37.763Z,16.20
2022-10-04T12:36:24.444Z,16.30
2022-10-04T12:39:08.413Z,16.30
2022-10-04T12:41:45.882Z,16.30
2022-10-04T12:44:29.175Z,16.40
2022-10-04T12:47:20.203Z,16.40
2022-10-04T12:49:57.172Z,16.50
2022-10-04T12:52:27.821Z,16.50
2022-10-04T12:55:03.096Z,16.60
2022-10-04T12:57:51.602Z,16.60
2022-10-04T13:00:22.689Z,16.60
2022-10-04T13:03:02.343Z,16.70
2022-10-04T13:05:37.845Z,16.70
2022-10-04T13:08:21.032Z,16.80
2022-10-04T13:11:26.894Z,16.80
2022-10-04T13:14:29.543Z,16.80
2022-10-04T13:19:59.289Z,16.80
2022-10-04T13:22:56.575Z,16.90
2022-10-04T13:25:38.422Z,16.90
2022-10-04T13:28:23.187Z,16.90
2022-10-04T13:30:56.789Z,17.00
2022-10-04T13:33:32.382Z,17.00
2022-10-04T13:36:07.238Z,17.00
2022-10-04T13:38:57.390Z,17.00
2022-10-04T13:41:39.715Z,17.10
2022-10-04T13:44:24.001Z,17.10
2022-10-04T13:47:10.118Z,17.10
2022-10-04T13:49:53.788Z,17.10
2022-10-04T13:52:48.662Z,17.20
2022-10-04T13:55:44.682Z,17.20
2022-10-04T13:58:27.103Z,17.20
2022-10-04T14:01:31.456Z,17.20
2022-10-04T14:04:20.082Z,17.20
2022-10-04T14:07:13.501Z,17.20
2022-10-04T14:09:52.539Z,17.30
2022-10-04T14:12:54.023Z,17.30
2022-10-04T14:15:53.303Z,17.30
2022-10-04T14:19:21.124Z,17.30
2022-10-04T14:22:23.740Z,17.30
2022-10-04T14:25:30.940Z,17.30
2022-10-04T14:28:38.331Z,17.30
2022-10-04T14:31:24.124Z,17.30
2022-10-04T14:34:29.440Z,17.30
2022-10-04T14:37:15.005Z,17.30
2022-10-04T14:40:00.770Z,17.20
2022-10-04T14:43:00.432Z,17.20
2022-10-04T14:45:39.451Z,17.20
2022-10-04T14:48:38.380Z,17.20
2022-10-04T14:51:39.042Z,17.10
2022-10-04T14:54:11.034Z,17.10
2022-10-04T14:56:58.026Z,17.10
2022-10-04T14:59:42.894Z,17.00
2022-10-04T15:02:43.858Z,17.00
2022-10-04T15:05:32.013Z,16.90
2022-10-04T15:08:38.666Z,16.80
2022-10-04T15:11:08.555Z,16.80
2022-10-04T15:13:42.166Z,16.70
2022-10-04T15:16:22.651Z,16.70
2022-10-04T15:18:55.714Z,16.60
2022-10-04T15:21:51.743Z,16.60
2022-10-04T15:24:30.950Z,16.50
2022-10-04T15:27:27.358Z,16.50
2022-10-04T15:30:03.442Z,16.50
2022-10-04T15:32:37.803Z,16.40
2022-10-04T15:35:24.329Z,16.40
2022-10-04T15:37:59.249Z,16.40
2022-10-04T15:40:40.683Z,16.30
2022-10-04T15:43:25.958Z,16.30
2022-10-04T15:46:26.593Z,16.30
2022-10-04T15:49:17.038Z,16.30
2022-10-04T15:52:03.304Z,16.20
2022-10-04T15:55:05.019Z,16.20
2022-10-04T15:57:53.766Z,16.10
2022-10-04T16:00:25.318Z,16.10
2022-10-04T16:03:05.979Z,16.10
2022-10-04T16:05:39.944Z,16.00
2022-10-04T16:08:36.353Z,16.00
2022-10-04T16:11:26.366Z,15.90
2022-10-04T16:14:22.947Z,15.80
2022-10-04T16:17:22.414Z,15.80
2022-10-04T16:20:02.448Z,15.70
2022-10-04T16:22:31.730Z,15.70
2022-10-04T16:25:20.446Z,15.60
2022-10-04T16:28:05.843Z,15.60
2022-10-04T16:30:43.279Z,15.50
2022-10-04T16:33:25.370Z,15.50
2022-10-04T16:36:05.434Z,15.40
2022-10-04T16:38:57.602Z,15.40
2022-10-04T16:41:35.106Z,15.30
2022-10-04T16:44:04.590Z,15.30
2022-10-04T16:46:39.166Z,15.20
2022-10-04T16:49:25.097Z,15.10
2022-10-04T16:52:20.050Z,15.10
2022-10-04T16:55:17.679Z,15.00
2022-10-04T16:57:45.821Z,14.90
2022-10-04T17:00:36.078Z,14.80
2022-10-04T17:03:16.171Z,14.80
2022-10-04T17:06:07.264Z,14.70
2022-10-04T17:09:03.686Z,14.70
2022-10-04T17:11:45.559Z,14.60
2022-10-04T17:14:35.984Z,14.50
2022-10-04T17:17:12.339Z,14.50
2022-10-04T17:19:49.160Z,14.40
2022-10-04T17:22:33.242Z,14.40
2022-10-04T17:25:18.835Z,14.30
2022-10-04T17:27:51.305Z,14.30
2022-10-04T17:30:22.307Z,14.20
2022-10-04T17:33:18.361Z,14.20
2022-10-04T17:36:09.254Z,14.10
2022-10-04T17:38:45.474Z,14.10
2022-10-04T17:41:19.924Z,14.00
2022-10-04T17:44:19.433Z,14.00
2022-10-04T17:46:54.397Z,14.00
2022-10-04T17:49:49.984Z,13.90
2022-10-04T17:52:42.861Z,13.90
2022-10-04T17:55:17.961Z,13.80
2022-10-04T17:57:50.820Z,13.80
2022-10-04T18:00:21.190Z,13.80
2022-10-04T18:03:11.897Z,13.70
2022-10-04T18:05:50.709Z,13.70
2022-10-04T18:08:25.405Z,13.60
2022-10-04T18:10:56.975Z,13.50
2022-10-04T18:13:31.263Z,13.50
2022-10-04T18:16:11.352Z,13.40
2022-10-04T18:18:41.689Z,13.40
2022-10-04T18:21:27.286Z,13.30
2022-10-04T18:23:59.437Z,13.30
2022-10-04T18:26:30.027Z,13.30
2022-10-04T18:29:00.364Z,13.20
2022-10-04T18:31:32.886Z,13.20
2022-10-04T18:34:15.807Z,13.10
2022-10-04T18:37:06.416Z,13.20
2022-10-04T18:39:46.274Z,13.10
2022-10-04T18:42:23.306Z,13.10
2022-10-04T18:44:59.206Z,13.10
2022-10-04T18:47:38.050Z,13.00
2022-10-04T18:50:17.868Z,13.00
2022-10-04T18:52:58.908Z,13.00
2022-10-04T18:55:42.699Z,12.90
2022-10-04T18:58:43.478Z,12.90
2022-10-04T19:01:49.027Z,12.90
2022-10-04T19:04:27.162Z,12.90
2022-10-04T19:06:58.821Z,12.80
2022-10-04T19:09:34.776Z,12.80
2022-10-04T19:12:12.054Z,12.80
2022-10-04T19:14:48.627Z,12.70
2022-10-04T19:17:22.354Z,12.60
2022-10-04T19:20:03.153Z,12.60
2022-10-04T19:22:44.802Z,12.60
2022-10-04T19:25:29.970Z,12.50
2022-10-04T19:28:05.637Z,12.50
2022-10-04T19:30:48.834Z,12.40
2022-10-04T19:33:21.221Z,12.40
2022-10-04T19:36:07.350Z,12.30
2022-10-04T19:38:52.062Z,12.30
2022-10-04T19:41:28.242Z,12.30
2022-10-04T19:44:03.895Z,12.20
2022-10-04T19:46:42.206Z,12.10
2022-10-04T19:49:21.419Z,12.10
2022-10-04T19:51:53.726Z,12.10
2022-10-04T19:54:29.280Z,12.00
2022-10-04T19:56:58.763Z,12.00
2022-10-04T19:59:36.724Z,12.00
2022-10-04T20:02:09.375Z,12.00
2022-10-04T20:04:38.375Z,12.00
2022-10-04T20:07:11.421Z,12.00
2022-10-04T20:09:54.243Z,12.00
2022-10-04T20:12:36.890Z,12.00
2022-10-04T20:15:43.601Z,12.00
2022-10-04T20:18:44.817Z,12.00
2022-10-04T20:21:26.572Z,12.00
2022-10-04T20:23:57.652Z,11.90
2022-10-04T20:27:06.544Z,11.90
2022-10-04T20:30:06.089Z,11.90
2022-10-04T20:33:10.593Z,11.90
2022-10-04T20:36:04.871Z,11.90
2022-10-04T20:38:50.261Z,11.80
2022-10-04T20:42:22.238Z,11.80
2022-10-04T20:44:55.297Z,11.80
2022-10-04T20:47:37.915Z,11.70
2022-10-04T20:50:14.334Z,11.70
2022-10-04T20:52:48.001Z,11.70
2022-10-04T20:55:23.673Z,11.70
2022-10-04T20:57:51.477Z,11.70
2022-10-04T21:00:21.514Z,11.60
2022-10-04T21:02:50.213Z,11.60
2022-10-04T21:09:00.390Z,11.50
2022-10-04T21:11:44.931Z,11.50
2022-10-04T21:14:23.659Z,11.50
2022-10-04T21:16:53.490Z,11.40
2022-10-04T21:19:47.070Z,11.40
2022-10-04T21:22:37.406Z,11.30
2022-10-04T21:25:30.899Z,11.30
2022-10-04T21:28:33.477Z,11.20
2022-10-04T21:31:02.534Z,11.20
2022-10-04T21:33:32.610Z,11.10
2022-10-04T21:36:00.503Z,11.10
2022-10-04T21:38:28.601Z,11.00
2022-10-04T21:40:58.087Z,10.90
2022-10-04T21:43:26.622Z,10.90
2022-10-04T21:45:54.394Z,10.90
2022-10-04T21:48:23.230Z,10.80
2022-10-04T21:50:52.406Z,10.70
2022-10-04T21:53:20.667Z,10.70
2022-10-04T21:55:48.432Z,10.70
2022-10-04T21:58:17.503Z,10.70
2022-10-04T22:00:45.308Z,10.60
2022-10-04T22:03:13.027Z,10.60
2022-10-04T22:05:40.762Z,10.60
2022-10-04T22:08:08.494Z,10.60
2022-10-04T22:10:36.252Z,10.50
2022-10-04T22:13:03.957Z,10.50
2022-10-04T22:15:33.018Z,10.50
2022-10-04T22:18:00.723Z,10.50
2022-10-04T22:20:28.766Z,10.50
2022-10-04T22:22:57.497Z,10.50
2022-10-04T22:25:27.147Z,10.50
2022-10-04T22:27:55.727Z,10.50
2022-10-04T22:30:26.233Z,10.50
2022-10-04T22:32:58.199Z,10.50
2022-10-04T22:35:26.035Z,10.50
2022-10-04T22:37:54.157Z,10.50
2022-10-04T22:40:23.586Z,10.50
2022-10-04T22:42:53.424Z,10.50
2022-10-04T22:45:24.061Z,10.50
2022-10-04T22:47:52.773Z,10.40
2022-10-04T22:50:40.053Z,10.40
2022-10-04T22:53:14.542Z,10.30
2022-10-04T22:55:42.675Z,10.30
2022-10-04T22:58:13.934Z,10.30
2022-10-04T23:00:42.062Z,10.30
2022-10-04T23:03:23.253Z,10.30
2022-10-04T23:05:52.326Z,10.20
2022-10-04T23:08:20.044Z,10.20
2022-10-04T23:10:48.405Z,10.20
2022-10-04T23:13:16.125Z,10.20
2022-10-04T23:15:43.873Z,10.20
2022-10-04T23:18:15.463Z,10.20
2022-10-04T23:20:43.713Z,10.20
2022-10-04T23:23:18.234Z,10.20
2022-10-04T23:25:47.037Z,10.10
2022-10-04T23:28:16.481Z,10.10
2022-10-04T23:30:45.805Z,10.10
2022-10-04T23:33:17.655Z,10.10
2022-10-04T23:35:45.399Z,10.00
2022-10-04T23:38:17.481Z,10.00
2022-10-04T23:40:45.577Z,9.90
2022-10-04T23:43:18.757Z,9.90
2022-10-04T23:45:46.702Z,9.90
2022-10-04T23:48:22.247Z,9.90
2022-10-04T23:50:51.219Z,9.80
2022-10-04T23:53:26.572Z,9.80
2022-10-04T23:55:55.661Z,9.80
2022-10-04T23:58:25.383Z,9.80
